sensor_id;sensor_type;location;lat;lon;timestamp;P1;durP1;ratioP1;P2;durP2;ratioP2
27957;SDS011;15295;42.658;23.374;2022-11-15T00:02:31;104.22;;;53.15;;
27957;SDS011;15295;42.658;23.374;2022-11-15T00:05:23;97.22;;;45.45;;
27957;SDS011;15295;42.658;23.374;2022-11-15T00:07:56;98.88;;;48.35;;
27957;SDS011;15295;42.658;23.374;2022-11-15T00:10:28;96.22;;;47.15;;
27957;SDS011;15295;42.658;23.374;2022-11-15T00:13:23;95.05;;;48.58;;
27957;SDS011;15295;42.658;23.374;2022-11-15T00:15:58;100.20;;;48.15;;
27957;SDS011;15295;42.658;23.374;2022-11-15T00:18:26;104.18;;;49.75;;
27957;SDS011;15295;42.658;23.374;2022-11-15T00:20:53;95.68;;;46.25;;
27957;SDS011;15295;42.658;23.374;2022-11-15T00:23:19;92.40;;;46.58;;
27957;SDS011;15295;42.658;23.374;2022-11-15T00:25:59;94.22;;;44.50;;
27957;SDS011;15295;42.658;23.374;2022-11-15T00:28:52;89.10;;;43.65;;
27957;SDS011;15295;42.658;23.374;2022-11-15T00:31:22;94.95;;;45.92;;
27957;SDS011;15295;42.658;23.374;2022-11-15T00:33:50;98.38;;;48.63;;
27957;SDS011;15295;42.658;23.374;2022-11-15T00:36:15;106.00;;;49.80;;
27957;SDS011;15295;42.658;23.374;2022-11-15T00:39:08;100.47;;;47.80;;
27957;SDS011;15295;42.658;23.374;2022-11-15T00:41:56;104.53;;;53.08;;
27957;SDS011;15295;42.658;23.374;2022-11-15T00:44:24;115.20;;;52.50;;
27957;SDS011;15295;42.658;23.374;2022-11-15T00:47:05;126.30;;;56.65;;
27957;SDS011;15295;42.658;23.374;2022-11-15T00:49:30;109.03;;;54.50;;
27957;SDS011;15295;42.658;23.374;2022-11-15T00:52:00;95.85;;;48.22;;
27957;SDS011;15295;42.658;23.374;2022-11-15T00:54:27;111.70;;;55.35;;
27957;SDS011;15295;42.658;23.374;2022-11-15T00:57:05;128.77;;;61.40;;
27957;SDS011;15295;42.658;23.374;2022-11-15T00:59:36;120.72;;;58.60;;
27957;SDS011;15295;42.658;23.374;2022-11-15T01:02:09;97.13;;;47.75;;
27957;SDS011;15295;42.658;23.374;2022-11-15T01:04:50;87.40;;;45.17;;
27957;SDS011;15295;42.658;23.374;2022-11-15T01:07:17;108.13;;;54.00;;
27957;SDS011;15295;42.658;23.374;2022-11-15T01:09:55;114.05;;;55.20;;
27957;SDS011;15295;42.658;23.374;2022-11-15T01:12:20;138.48;;;65.93;;
27957;SDS011;15295;42.658;23.374;2022-11-15T01:14:47;112.82;;;55.08;;
27957;SDS011;15295;42.658;23.374;2022-11-15T01:17:21;103.40;;;51.47;;
27957;SDS011;15295;42.658;23.374;2022-11-15T01:19:50;92.88;;;47.17;;
27957;SDS011;15295;42.658;23.374;2022-11-15T01:22:16;102.05;;;50.08;;
27957;SDS011;15295;42.658;23.374;2022-11-15T01:27:27;128.18;;;61.55;;
27957;SDS011;15295;42.658;23.374;2022-11-15T01:29:53;136.05;;;58.30;;
27957;SDS011;15295;42.658;23.374;2022-11-15T01:32:21;105.10;;;52.05;;
27957;SDS011;15295;42.658;23.374;2022-11-15T01:34:52;112.00;;;54.92;;
27957;SDS011;15295;42.658;23.374;2022-11-15T01:37:19;104.00;;;51.75;;
27957;SDS011;15295;42.658;23.374;2022-11-15T01:39:46;99.45;;;50.75;;
27957;SDS011;15295;42.658;23.374;2022-11-15T01:42:46;91.47;;;46.45;;
27957;SDS011;15295;42.658;23.374;2022-11-15T01:45:47;93.40;;;46.10;;
27957;SDS011;15295;42.658;23.374;2022-11-15T01:48:20;93.15;;;45.85;;
27957;SDS011;15295;42.658;23.374;2022-11-15T01:50:54;106.80;;;49.47;;
27957;SDS011;15295;42.658;23.374;2022-11-15T01:53:42;117.78;;;54.13;;
27957;SDS011;15295;42.658;23.374;2022-11-15T01:56:20;121.63;;;57.17;;
27957;SDS011;15295;42.658;23.374;2022-11-15T01:58:51;115.03;;;54.78;;
27957;SDS011;15295;42.658;23.374;2022-11-15T02:01:26;116.35;;;54.42;;
27957;SDS011;15295;42.658;23.374;2022-11-15T02:04:16;114.00;;;52.78;;
27957;SDS011;15295;42.658;23.374;2022-11-15T02:06:46;108.78;;;51.83;;
27957;SDS011;15295;42.658;23.374;2022-11-15T02:09:13;94.13;;;46.53;;
27957;SDS011;15295;42.658;23.374;2022-11-15T02:11:44;93.30;;;43.80;;
27957;SDS011;15295;42.658;23.374;2022-11-15T02:14:14;87.45;;;42.20;;
27957;SDS011;15295;42.658;23.374;2022-11-15T02:17:01;87.13;;;41.88;;
27957;SDS011;15295;42.658;23.374;2022-11-15T02:20:06;83.65;;;42.42;;
27957;SDS011;15295;42.658;23.374;2022-11-15T02:32:03;90.78;;;43.78;;
27957;SDS011;15295;42.658;23.374;2022-11-15T02:43:35;86.30;;;41.90;;
27957;SDS011;15295;42.658;23.374;2022-11-15T02:46:38;89.15;;;39.80;;
27957;SDS011;15295;42.658;23.374;2022-11-15T02:49:37;88.72;;;43.75;;
27957;SDS011;15295;42.658;23.374;2022-11-15T02:52:05;83.28;;;40.58;;
27957;SDS011;15295;42.658;23.374;2022-11-15T02:54:39;87.82;;;40.42;;
27957;SDS011;15295;42.658;23.374;2022-11-15T02:57:15;80.03;;;38.10;;
27957;SDS011;15295;42.658;23.374;2022-11-15T03:05:35;116.20;;;51.95;;
27957;SDS011;15295;42.658;23.374;2022-11-15T03:11:19;133.00;;;59.72;;
27957;SDS011;15295;42.658;23.374;2022-11-15T03:14:33;111.82;;;49.92;;
27957;SDS011;15295;42.658;23.374;2022-11-15T03:20:04;106.50;;;46.08;;
27957;SDS011;15295;42.658;23.374;2022-11-15T03:22:40;100.93;;;43.80;;
27957;SDS011;15295;42.658;23.374;2022-11-15T03:25:09;110.05;;;51.17;;
27957;SDS011;15295;42.658;23.374;2022-11-15T03:27:42;107.80;;;50.38;;
27957;SDS011;15295;42.658;23.374;2022-11-15T03:30:13;109.90;;;51.80;;
27957;SDS011;15295;42.658;23.374;2022-11-15T03:32:40;109.15;;;49.85;;
27957;SDS011;15295;42.658;23.374;2022-11-15T03:35:35;111.85;;;48.47;;
27957;SDS011;15295;42.658;23.374;2022-11-15T03:38:17;112.35;;;48.42;;
27957;SDS011;15295;42.658;23.374;2022-11-15T03:40:50;115.10;;;52.38;;
27957;SDS011;15295;42.658;23.374;2022-11-15T03:43:46;136.73;;;62.78;;
27957;SDS011;15295;42.658;23.374;2022-11-15T03:46:28;141.48;;;65.95;;
27957;SDS011;15295;42.658;23.374;2022-11-15T03:49:32;139.93;;;63.35;;
27957;SDS011;15295;42.658;23.374;2022-11-15T03:52:02;118.80;;;58.05;;
27957;SDS011;15295;42.658;23.374;2022-11-15T03:54:29;110.60;;;54.22;;
27957;SDS011;15295;42.658;23.374;2022-11-15T03:57:31;109.97;;;54.22;;
27957;SDS011;15295;42.658;23.374;2022-11-15T03:59:57;89.93;;;46.03;;
27957;SDS011;15295;42.658;23.374;2022-11-15T04:02:30;88.97;;;46.55;;
27957;SDS011;15295;42.658;23.374;2022-11-15T04:04:56;82.82;;;43.63;;
27957;SDS011;15295;42.658;23.374;2022-11-15T04:07:22;79.22;;;43.33;;
27957;SDS011;15295;42.658;23.374;2022-11-15T04:10:00;78.70;;;41.88;;
27957;SDS011;15295;42.658;23.374;2022-11-15T04:12:44;67.25;;;37.15;;
27957;SDS011;15295;42.658;23.374;2022-11-15T04:15:14;67.38;;;37.65;;
27957;SDS011;15295;42.658;23.374;2022-11-15T04:17:54;66.07;;;36.40;;
27957;SDS011;15295;42.658;23.374;2022-11-15T04:20:23;67.55;;;37.67;;
27957;SDS011;15295;42.658;23.374;2022-11-15T04:23:15;64.88;;;35.05;;
27957;SDS011;15295;42.658;23.374;2022-11-15T04:26:09;65.22;;;36.00;;
27957;SDS011;15295;42.658;23.374;2022-11-15T04:28:40;69.63;;;38.50;;
27957;SDS011;15295;42.658;23.374;2022-11-15T04:31:28;86.07;;;41.00;;
27957;SDS011;15295;42.658;23.374;2022-11-15T04:33:58;129.35;;;46.78;;
27957;SDS011;15295;42.658;23.374;2022-11-15T04:36:34;144.25;;;45.60;;
27957;SDS011;15295;42.658;23.374;2022-11-15T04:39:18;101.45;;;45.80;;
27957;SDS011;15295;42.658;23.374;2022-11-15T04:41:48;112.72;;;46.15;;
27957;SDS011;15295;42.658;23.374;2022-11-15T04:44:18;102.18;;;44.22;;
27957;SDS011;15295;42.658;23.374;2022-11-15T04:47:09;101.28;;;45.15;;
27957;SDS011;15295;42.658;23.374;2022-11-15T04:49:37;106.90;;;45.63;;
27957;SDS011;15295;42.658;23.374;2022-11-15T04:52:06;99.90;;;43.88;;
27957;SDS011;15295;42.658;23.374;2022-11-15T04:54:37;115.93;;;45.50;;
27957;SDS011;15295;42.658;23.374;2022-11-15T04:59:44;112.85;;;46.10;;
27957;SDS011;15295;42.658;23.374;2022-11-15T05:02:19;107.72;;;46.58;;
27957;SDS011;15295;42.658;23.374;2022-11-15T05:04:48;111.60;;;47.83;;
27957;SDS011;15295;42.658;23.374;2022-11-15T05:07:26;112.65;;;45.25;;
27957;SDS011;15295;42.658;23.374;2022-11-15T05:09:53;109.95;;;47.25;;
27957;SDS011;15295;42.658;23.374;2022-11-15T05:12:20;101.97;;;45.63;;
27957;SDS011;15295;42.658;23.374;2022-11-15T05:14:45;107.57;;;46.50;;
27957;SDS011;15295;42.658;23.374;2022-11-15T05:17:23;118.13;;;47.33;;
27957;SDS011;15295;42.658;23.374;2022-11-15T05:19:49;113.53;;;45.88;;
27957;SDS011;15295;42.658;23.374;2022-11-15T05:22:17;121.78;;;48.30;;
27957;SDS011;15295;42.658;23.374;2022-11-15T05:24:44;122.97;;;49.55;;
27957;SDS011;15295;42.658;23.374;2022-11-15T05:27:11;117.55;;;48.05;;
27957;SDS011;15295;42.658;23.374;2022-11-15T05:29:36;126.88;;;48.20;;
27957;SDS011;15295;42.658;23.374;2022-11-15T05:32:03;108.95;;;45.05;;
27957;SDS011;15295;42.658;23.374;2022-11-15T05:34:30;130.88;;;44.33;;
27957;SDS011;15295;42.658;23.374;2022-11-15T05:36:56;115.70;;;47.47;;
27957;SDS011;15295;42.658;23.374;2022-11-15T05:39:21;125.97;;;47.47;;
27957;SDS011;15295;42.658;23.374;2022-11-15T05:41:48;104.47;;;41.85;;
27957;SDS011;15295;42.658;23.374;2022-11-15T05:44:21;109.83;;;42.73;;
27957;SDS011;15295;42.658;23.374;2022-11-15T05:46:49;103.15;;;41.22;;
27957;SDS011;15295;42.658;23.374;2022-11-15T05:49:21;94.82;;;42.17;;
27957;SDS011;15295;42.658;23.374;2022-11-15T05:51:52;103.90;;;40.72;;
27957;SDS011;15295;42.658;23.374;2022-11-15T05:54:19;97.93;;;37.70;;
27957;SDS011;15295;42.658;23.374;2022-11-15T05:56:47;86.95;;;34.22;;
27957;SDS011;15295;42.658;23.374;2022-11-15T05:59:13;60.45;;;26.23;;
27957;SDS011;15295;42.658;23.374;2022-11-15T06:01:39;47.80;;;23.35;;
27957;SDS011;15295;42.658;23.374;2022-11-15T06:04:05;47.63;;;21.02;;
27957;SDS011;15295;42.658;23.374;2022-11-15T06:06:30;46.67;;;22.23;;
27957;SDS011;15295;42.658;23.374;2022-11-15T06:08:56;49.35;;;22.00;;
27957;SDS011;15295;42.658;23.374;2022-11-15T06:11:21;50.65;;;22.30;;
27957;SDS011;15295;42.658;23.374;2022-11-15T06:13:48;51.05;;;23.58;;
27957;SDS011;15295;42.658;23.374;2022-11-15T06:16:14;58.10;;;25.58;;
27957;SDS011;15295;42.658;23.374;2022-11-15T06:21:19;48.60;;;22.52;;
27957;SDS011;15295;42.658;23.374;2022-11-15T06:23:45;55.97;;;24.23;;
27957;SDS011;15295;42.658;23.374;2022-11-15T06:26:10;46.05;;;22.02;;
27957;SDS011;15295;42.658;23.374;2022-11-15T06:28:36;52.63;;;24.13;;
27957;SDS011;15295;42.658;23.374;2022-11-15T06:33:30;48.05;;;22.80;;
27957;SDS011;15295;42.658;23.374;2022-11-15T06:35:59;52.22;;;23.83;;
27957;SDS011;15295;42.658;23.374;2022-11-15T06:38:26;57.97;;;26.05;;
27957;SDS011;15295;42.658;23.374;2022-11-15T06:40:52;54.80;;;25.48;;
27957;SDS011;15295;42.658;23.374;2022-11-15T06:43:17;59.58;;;27.55;;
27957;SDS011;15295;42.658;23.374;2022-11-15T06:45:43;56.90;;;26.70;;
27957;SDS011;15295;42.658;23.374;2022-11-15T06:48:09;64.20;;;29.45;;
27957;SDS011;15295;42.658;23.374;2022-11-15T06:50:34;71.50;;;31.75;;
27957;SDS011;15295;42.658;23.374;2022-11-15T06:53:00;64.53;;;30.25;;
27957;SDS011;15295;42.658;23.374;2022-11-15T06:55:27;70.85;;;32.05;;
27957;SDS011;15295;42.658;23.374;2022-11-15T06:57:53;70.15;;;31.83;;
27957;SDS011;15295;42.658;23.374;2022-11-15T07:00:22;70.25;;;30.50;;
27957;SDS011;15295;42.658;23.374;2022-11-15T07:02:48;74.28;;;33.35;;
27957;SDS011;15295;42.658;23.374;2022-11-15T07:05:14;72.63;;;32.47;;
27957;SDS011;15295;42.658;23.374;2022-11-15T07:07:41;80.53;;;34.03;;
27957;SDS011;15295;42.658;23.374;2022-11-15T07:10:07;75.07;;;32.95;;
27957;SDS011;15295;42.658;23.374;2022-11-15T07:12:33;80.03;;;34.83;;
27957;SDS011;15295;42.658;23.374;2022-11-15T07:15:00;78.80;;;33.75;;
27957;SDS011;15295;42.658;23.374;2022-11-15T07:17:25;102.38;;;38.90;;
27957;SDS011;15295;42.658;23.374;2022-11-15T07:19:51;110.85;;;42.33;;
27957;SDS011;15295;42.658;23.374;2022-11-15T07:22:16;99.07;;;41.00;;
27957;SDS011;15295;42.658;23.374;2022-11-15T07:24:42;133.02;;;49.47;;
27957;SDS011;15295;42.658;23.374;2022-11-15T07:27:07;104.95;;;40.08;;
27957;SDS011;15295;42.658;23.374;2022-11-15T07:29:32;105.35;;;41.95;;
27957;SDS011;15295;42.658;23.374;2022-11-15T07:31:58;117.15;;;43.75;;
27957;SDS011;15295;42.658;23.374;2022-11-15T07:34:24;111.93;;;41.75;;
27957;SDS011;15295;42.658;23.374;2022-11-15T07:36:49;120.97;;;41.47;;
27957;SDS011;15295;42.658;23.374;2022-11-15T07:39:17;118.10;;;42.85;;
27957;SDS011;15295;42.658;23.374;2022-11-15T07:41:42;115.93;;;44.15;;
27957;SDS011;15295;42.658;23.374;2022-11-15T07:44:08;107.30;;;42.67;;
27957;SDS011;15295;42.658;23.374;2022-11-15T07:46:34;108.18;;;41.42;;
27957;SDS011;15295;42.658;23.374;2022-11-15T07:49:06;111.93;;;43.28;;
27957;SDS011;15295;42.658;23.374;2022-11-15T07:51:31;109.68;;;42.70;;
27957;SDS011;15295;42.658;23.374;2022-11-15T07:53:57;100.88;;;42.78;;
27957;SDS011;15295;42.658;23.374;2022-11-15T07:56:22;114.15;;;43.80;;
27957;SDS011;15295;42.658;23.374;2022-11-15T07:58:47;98.07;;;44.08;;
27957;SDS011;15295;42.658;23.374;2022-11-15T08:01:13;105.78;;;42.20;;
27957;SDS011;15295;42.658;23.374;2022-11-15T08:03:38;98.07;;;41.20;;
27957;SDS011;15295;42.658;23.374;2022-11-15T08:06:04;99.80;;;41.13;;
27957;SDS011;15295;42.658;23.374;2022-11-15T08:08:30;97.47;;;41.65;;
27957;SDS011;15295;42.658;23.374;2022-11-15T08:10:59;104.53;;;44.13;;
27957;SDS011;15295;42.658;23.374;2022-11-15T08:13:26;102.70;;;45.15;;
27957;SDS011;15295;42.658;23.374;2022-11-15T08:16:11;94.32;;;42.70;;
27957;SDS011;15295;42.658;23.374;2022-11-15T08:21:17;93.72;;;42.72;;
27957;SDS011;15295;42.658;23.374;2022-11-15T08:23:44;93.25;;;43.72;;
27957;SDS011;15295;42.658;23.374;2022-11-15T08:26:12;96.40;;;43.50;;
27957;SDS011;15295;42.658;23.374;2022-11-15T08:28:38;96.20;;;44.53;;
27957;SDS011;15295;42.658;23.374;2022-11-15T08:31:14;94.25;;;42.97;;
27957;SDS011;15295;42.658;23.374;2022-11-15T08:33:41;97.22;;;44.72;;
27957;SDS011;15295;42.658;23.374;2022-11-15T08:36:10;102.38;;;44.53;;
27957;SDS011;15295;42.658;23.374;2022-11-15T08:38:39;90.03;;;42.03;;
27957;SDS011;15295;42.658;23.374;2022-11-15T08:41:05;97.07;;;44.00;;
27957;SDS011;15295;42.658;23.374;2022-11-15T08:43:32;96.07;;;45.28;;
27957;SDS011;15295;42.658;23.374;2022-11-15T08:45:58;101.60;;;47.08;;
27957;SDS011;15295;42.658;23.374;2022-11-15T08:48:23;98.22;;;46.80;;
27957;SDS011;15295;42.658;23.374;2022-11-15T08:53:22;105.65;;;47.63;;
27957;SDS011;15295;42.658;23.374;2022-11-15T08:55:51;96.10;;;44.00;;
27957;SDS011;15295;42.658;23.374;2022-11-15T08:58:17;96.85;;;45.63;;
27957;SDS011;15295;42.658;23.374;2022-11-15T09:00:42;95.47;;;45.50;;
27957;SDS011;15295;42.658;23.374;2022-11-15T09:03:08;99.32;;;45.80;;
27957;SDS011;15295;42.658;23.374;2022-11-15T09:05:35;101.68;;;49.45;;
27957;SDS011;15295;42.658;23.374;2022-11-15T09:08:01;106.78;;;48.05;;
27957;SDS011;15295;42.658;23.374;2022-11-15T09:10:28;101.18;;;46.25;;
27957;SDS011;15295;42.658;23.374;2022-11-15T09:12:53;103.30;;;50.55;;
27957;SDS011;15295;42.658;23.374;2022-11-15T09:15:18;105.05;;;49.85;;
27957;SDS011;15295;42.658;23.374;2022-11-15T09:17:44;105.63;;;50.15;;
27957;SDS011;15295;42.658;23.374;2022-11-15T09:20:12;95.53;;;46.83;;
27957;SDS011;15295;42.658;23.374;2022-11-15T09:22:38;93.53;;;45.20;;
27957;SDS011;15295;42.658;23.374;2022-11-15T09:25:04;98.88;;;48.03;;
27957;SDS011;15295;42.658;23.374;2022-11-15T09:27:30;108.13;;;51.75;;
27957;SDS011;15295;42.658;23.374;2022-11-15T09:29:55;95.05;;;47.10;;
27957;SDS011;15295;42.658;23.374;2022-11-15T09:32:21;95.78;;;46.42;;
27957;SDS011;15295;42.658;23.374;2022-11-15T09:34:48;101.68;;;48.63;;
27957;SDS011;15295;42.658;23.374;2022-11-15T09:37:14;100.00;;;48.65;;
27957;SDS011;15295;42.658;23.374;2022-11-15T09:39:39;106.13;;;48.65;;
27957;SDS011;15295;42.658;23.374;2022-11-15T09:42:25;98.55;;;48.65;;
27957;SDS011;15295;42.658;23.374;2022-11-15T09:50:13;98.63;;;48.20;;
27957;SDS011;15295;42.658;23.374;2022-11-15T09:52:43;104.88;;;48.92;;
27957;SDS011;15295;42.658;23.374;2022-11-15T09:55:10;98.95;;;48.92;;
27957;SDS011;15295;42.658;23.374;2022-11-15T10:00:22;97.18;;;48.55;;
27957;SDS011;15295;42.658;23.374;2022-11-15T10:05:38;98.07;;;47.60;;
27957;SDS011;15295;42.658;23.374;2022-11-15T10:10:44;123.05;;;65.13;;
27957;SDS011;15295;42.658;23.374;2022-11-15T10:13:13;93.47;;;50.28;;
27957;SDS011;15295;42.658;23.374;2022-11-15T10:18:23;86.30;;;47.70;;
27957;SDS011;15295;42.658;23.374;2022-11-15T10:20:59;93.93;;;48.92;;
27957;SDS011;15295;42.658;23.374;2022-11-15T10:23:27;88.00;;;48.38;;
27957;SDS011;15295;42.658;23.374;2022-11-15T10:25:55;95.65;;;47.88;;
27957;SDS011;15295;42.658;23.374;2022-11-15T10:28:26;96.15;;;49.85;;
27957;SDS011;15295;42.658;23.374;2022-11-15T10:31:01;94.75;;;49.80;;
27957;SDS011;15295;42.658;23.374;2022-11-15T10:33:38;90.75;;;49.53;;
27957;SDS011;15295;42.658;23.374;2022-11-15T10:38:51;100.18;;;50.83;;
27957;SDS011;15295;42.658;23.374;2022-11-15T10:44:02;99.50;;;52.70;;
27957;SDS011;15295;42.658;23.374;2022-11-15T10:46:28;106.68;;;55.35;;
27957;SDS011;15295;42.658;23.374;2022-11-15T10:48:57;102.40;;;51.30;;
27957;SDS011;15295;42.658;23.374;2022-11-15T10:56:59;97.00;;;51.28;;
27957;SDS011;15295;42.658;23.374;2022-11-15T10:59:27;95.63;;;52.10;;
27957;SDS011;15295;42.658;23.374;2022-11-15T11:01:56;107.38;;;56.08;;
27957;SDS011;15295;42.658;23.374;2022-11-15T11:04:22;98.88;;;54.55;;
27957;SDS011;15295;42.658;23.374;2022-11-15T11:11:52;96.28;;;54.60;;
27957;SDS011;15295;42.658;23.374;2022-11-15T11:33:24;91.57;;;50.50;;
27957;SDS011;15295;42.658;23.374;2022-11-15T11:47:27;89.63;;;50.63;;
27957;SDS011;15295;42.658;23.374;2022-11-15T11:50:10;95.38;;;55.42;;
27957;SDS011;15295;42.658;23.374;2022-11-15T11:52:42;91.47;;;50.97;;
27957;SDS011;15295;42.658;23.374;2022-11-15T11:55:22;89.13;;;50.35;;
27957;SDS011;15295;42.658;23.374;2022-11-15T12:00:24;81.22;;;47.75;;
27957;SDS011;15295;42.658;23.374;2022-11-15T12:07:59;88.20;;;50.65;;
27957;SDS011;15295;42.658;23.374;2022-11-15T12:10:45;81.28;;;50.15;;
27957;SDS011;15295;42.658;23.374;2022-11-15T12:13:21;88.00;;;48.92;;
27957;SDS011;15295;42.658;23.374;2022-11-15T12:15:53;83.68;;;49.70;;
27957;SDS011;15295;42.658;23.374;2022-11-15T12:18:26;86.40;;;48.80;;
27957;SDS011;15295;42.658;23.374;2022-11-15T12:20:55;89.82;;;51.30;;
27957;SDS011;15295;42.658;23.374;2022-11-15T12:23:37;91.85;;;49.15;;
27957;SDS011;15295;42.658;23.374;2022-11-15T12:26:11;85.55;;;49.88;;
27957;SDS011;15295;42.658;23.374;2022-11-15T12:28:49;89.00;;;50.45;;
27957;SDS011;15295;42.658;23.374;2022-11-15T12:34:02;87.63;;;49.70;;
27957;SDS011;15295;42.658;23.374;2022-11-15T12:36:39;87.35;;;49.58;;
27957;SDS011;15295;42.658;23.374;2022-11-15T12:39:08;83.55;;;49.25;;
27957;SDS011;15295;42.658;23.374;2022-11-15T12:41:38;89.47;;;48.90;;
27957;SDS011;15295;42.658;23.374;2022-11-15T12:57:01;86.25;;;49.08;;
27957;SDS011;15295;42.658;23.374;2022-11-15T13:03:12;81.28;;;47.00;;
27957;SDS011;15295;42.658;23.374;2022-11-15T13:08:10;80.55;;;47.97;;
27957;SDS011;15295;42.658;23.374;2022-11-15T13:12:09;79.18;;;49.17;;
27957;SDS011;15295;42.658;23.374;2022-11-15T13:14:37;77.78;;;45.88;;
27957;SDS011;15295;42.658;23.374;2022-11-15T13:19:44;86.05;;;51.50;;
27957;SDS011;15295;42.658;23.374;2022-11-15T13:22:12;88.13;;;51.17;;
27957;SDS011;15295;42.658;23.374;2022-11-15T13:24:56;81.25;;;47.85;;
27957;SDS011;15295;42.658;23.374;2022-11-15T13:27:22;85.90;;;48.65;;
27957;SDS011;15295;42.658;23.374;2022-11-15T13:29:48;81.97;;;48.75;;
27957;SDS011;15295;42.658;23.374;2022-11-15T13:32:14;82.03;;;49.80;;
27957;SDS011;15295;42.658;23.374;2022-11-15T13:34:47;93.80;;;52.20;;
27957;SDS011;15295;42.658;23.374;2022-11-15T13:39:45;94.38;;;55.47;;
27957;SDS011;15295;42.658;23.374;2022-11-15T13:42:15;102.63;;;55.88;;
27957;SDS011;15295;42.658;23.374;2022-11-15T13:44:57;105.95;;;55.72;;
27957;SDS011;15295;42.658;23.374;2022-11-15T13:47:25;98.25;;;51.70;;
27957;SDS011;15295;42.658;23.374;2022-11-15T13:49:52;101.05;;;53.40;;
27957;SDS011;15295;42.658;23.374;2022-11-15T13:52:27;90.15;;;50.53;;
27957;SDS011;15295;42.658;23.374;2022-11-15T13:55:01;90.93;;;49.10;;
27957;SDS011;15295;42.658;23.374;2022-11-15T13:57:38;93.45;;;49.88;;
27957;SDS011;15295;42.658;23.374;2022-11-15T14:00:05;95.30;;;49.72;;
27957;SDS011;15295;42.658;23.374;2022-11-15T14:02:49;94.53;;;50.08;;
27957;SDS011;15295;42.658;23.374;2022-11-15T14:05:16;88.13;;;48.22;;
27957;SDS011;15295;42.658;23.374;2022-11-15T14:07:57;89.35;;;47.38;;
27957;SDS011;15295;42.658;23.374;2022-11-15T14:10:32;92.40;;;48.78;;
27957;SDS011;15295;42.658;23.374;2022-11-15T14:12:59;88.37;;;47.67;;
27957;SDS011;15295;42.658;23.374;2022-11-15T14:15:30;88.95;;;48.00;;
27957;SDS011;15295;42.658;23.374;2022-11-15T14:18:00;93.05;;;47.08;;
27957;SDS011;15295;42.658;23.374;2022-11-15T14:20:28;85.85;;;47.45;;
27957;SDS011;15295;42.658;23.374;2022-11-15T14:22:59;112.88;;;60.22;;
27957;SDS011;15295;42.658;23.374;2022-11-15T14:25:52;94.32;;;51.72;;
27957;SDS011;15295;42.658;23.374;2022-11-15T14:30:47;110.00;;;56.08;;
27957;SDS011;15295;42.658;23.374;2022-11-15T14:33:19;102.32;;;52.00;;
27957;SDS011;15295;42.658;23.374;2022-11-15T14:35:45;98.18;;;51.05;;
27957;SDS011;15295;42.658;23.374;2022-11-15T14:38:10;103.53;;;53.70;;
27957;SDS011;15295;42.658;23.374;2022-11-15T14:40:37;108.55;;;54.88;;
27957;SDS011;15295;42.658;23.374;2022-11-15T14:43:07;122.78;;;62.58;;
27957;SDS011;15295;42.658;23.374;2022-11-15T14:45:35;122.30;;;65.70;;
27957;SDS011;15295;42.658;23.374;2022-11-15T14:48:00;132.68;;;69.05;;
27957;SDS011;15295;42.658;23.374;2022-11-15T14:50:26;130.00;;;66.00;;
27957;SDS011;15295;42.658;23.374;2022-11-15T14:52:55;125.60;;;67.85;;
27957;SDS011;15295;42.658;23.374;2022-11-15T14:57:53;135.80;;;71.07;;
27957;SDS011;15295;42.658;23.374;2022-11-15T15:00:19;140.98;;;72.30;;
27957;SDS011;15295;42.658;23.374;2022-11-15T15:02:45;142.50;;;72.90;;
27957;SDS011;15295;42.658;23.374;2022-11-15T15:05:16;144.73;;;73.60;;
27957;SDS011;15295;42.658;23.374;2022-11-15T15:07:44;145.85;;;74.65;;
27957;SDS011;15295;42.658;23.374;2022-11-15T15:10:10;140.60;;;71.30;;
27957;SDS011;15295;42.658;23.374;2022-11-15T15:12:36;134.15;;;69.63;;
27957;SDS011;15295;42.658;23.374;2022-11-15T15:15:02;137.18;;;71.78;;
27957;SDS011;15295;42.658;23.374;2022-11-15T15:17:28;131.43;;;69.00;;
27957;SDS011;15295;42.658;23.374;2022-11-15T15:19:53;133.70;;;66.28;;
27957;SDS011;15295;42.658;23.374;2022-11-15T15:22:40;126.45;;;64.28;;
27957;SDS011;15295;42.658;23.374;2022-11-15T15:27:56;124.03;;;63.40;;
27957;SDS011;15295;42.658;23.374;2022-11-15T15:30:44;118.28;;;62.40;;
27957;SDS011;15295;42.658;23.374;2022-11-15T15:33:09;125.10;;;62.05;;
27957;SDS011;15295;42.658;23.374;2022-11-15T15:35:35;122.85;;;63.78;;
27957;SDS011;15295;42.658;23.374;2022-11-15T15:38:00;119.35;;;61.53;;
27957;SDS011;15295;42.658;23.374;2022-11-15T15:40:27;121.50;;;62.22;;
27957;SDS011;15295;42.658;23.374;2022-11-15T15:42:55;136.43;;;62.83;;
27957;SDS011;15295;42.658;23.374;2022-11-15T15:45:20;138.43;;;66.15;;
27957;SDS011;15295;42.658;23.374;2022-11-15T15:47:46;137.85;;;67.97;;
27957;SDS011;15295;42.658;23.374;2022-11-15T15:50:14;134.10;;;67.25;;
27957;SDS011;15295;42.658;23.374;2022-11-15T15:52:42;134.77;;;68.40;;
27957;SDS011;15295;42.658;23.374;2022-11-15T15:55:08;135.98;;;68.72;;
27957;SDS011;15295;42.658;23.374;2022-11-15T15:57:33;138.35;;;68.70;;
27957;SDS011;15295;42.658;23.374;2022-11-15T15:59:59;141.10;;;71.25;;
27957;SDS011;15295;42.658;23.374;2022-11-15T16:02:24;145.25;;;71.22;;
27957;SDS011;15295;42.658;23.374;2022-11-15T16:04:49;143.30;;;70.90;;
27957;SDS011;15295;42.658;23.374;2022-11-15T16:07:20;135.57;;;70.22;;
27957;SDS011;15295;42.658;23.374;2022-11-15T16:09:48;143.93;;;72.40;;
27957;SDS011;15295;42.658;23.374;2022-11-15T16:12:30;143.90;;;71.95;;
27957;SDS011;15295;42.658;23.374;2022-11-15T16:14:57;150.82;;;74.40;;
27957;SDS011;15295;42.658;23.374;2022-11-15T16:17:26;154.73;;;76.57;;
27957;SDS011;15295;42.658;23.374;2022-11-15T16:19:55;142.98;;;75.40;;
27957;SDS011;15295;42.658;23.374;2022-11-15T16:22:20;157.15;;;75.88;;
27957;SDS011;15295;42.658;23.374;2022-11-15T16:24:46;158.32;;;79.40;;
27957;SDS011;15295;42.658;23.374;2022-11-15T16:27:19;148.80;;;74.80;;
27957;SDS011;15295;42.658;23.374;2022-11-15T16:32:12;149.68;;;76.13;;
27957;SDS011;15295;42.658;23.374;2022-11-15T16:34:38;156.13;;;79.00;;
27957;SDS011;15295;42.658;23.374;2022-11-15T16:39:48;154.80;;;76.65;;
27957;SDS011;15295;42.658;23.374;2022-11-15T16:42:15;161.90;;;81.53;;
27957;SDS011;15295;42.658;23.374;2022-11-15T16:44:41;153.68;;;76.60;;
27957;SDS011;15295;42.658;23.374;2022-11-15T16:47:17;153.18;;;72.30;;
27957;SDS011;15295;42.658;23.374;2022-11-15T16:49:47;136.38;;;66.30;;
27957;SDS011;15295;42.658;23.374;2022-11-15T16:52:13;148.10;;;67.38;;
27957;SDS011;15295;42.658;23.374;2022-11-15T16:54:38;131.75;;;67.22;;
27957;SDS011;15295;42.658;23.374;2022-11-15T16:57:03;138.35;;;70.53;;
27957;SDS011;15295;42.658;23.374;2022-11-15T16:59:29;158.52;;;73.78;;
27957;SDS011;15295;42.658;23.374;2022-11-15T17:01:56;162.98;;;75.78;;
27957;SDS011;15295;42.658;23.374;2022-11-15T17:04:22;165.20;;;76.63;;